North Bloomfield, OH (44450)

2:27 PM EST on December 26, 2014 (GMT -0500)
OHDOT 94-SR11 ATB/TRUM | Change Station
CLOSE
Current Station
Personal Weather Station
Location: Farmdale, OH
Elevation: 1039 ft
Nearby Weather Stations

Elev 1039 ft 41.46 °N, 80.71 °W | Updated 24 minutes ago

Partly Cloudy
Partly Cloudy
46 °F
Feels Like 44 °F
N
4
Wind Variable Wind from South
Gusts 9.0 mph

Today
High -- | Low -- °F
--% Chance of Precip.
Yesterday
High -- | Low -- °F
Precip. -- in
7:48 AM 4:59 PM
Waxing Crescent, 28% visible
Pressure 30.17 in
Visibility 10.0 miles
Clouds Few 2500 ft
Scattered Clouds 25000 ft
Windchill 44 °F
Dew Point 35 °F
Humidity 64%
Rainfall -999.00 in
Snow Depth Not available.
UV 1 out of 12
Pollen .10 out of 12
Air Quality Not available.
Flu Activity Not available.
METAR KYNG 261851Z 21011KT 10SM FEW025 SCT250 08/01 A3015 RMK AO2 SLP216 T00830006

More Conditions Fewer Conditions

Pressure 30.17 in
Visibility 10.0 miles
Clouds Few 2500 ft
Scattered Clouds 25000 ft
Windchill 44 °F
Dew Point 35 °F
Humidity 64%
Rainfall -999.00 in
Snow Depth Not available.
UV 1 out of 12
Pollen .10 out of 12
Air Quality Not available.
Flu Activity Not available.
METAR KYNG 261851Z 21011KT 10SM FEW025 SCT250 08/01 A3015 RMK AO2 SLP216 T00830006

More Conditions Fewer Conditions

10-Day Weather Forecast

Almanac

Astronomy

Dec. 26, 2014 Rise Set
Actual Time
Civil Twilight
Nautical Twilight
Astronomical Twilight
Moon
Length of Visible Light
Length of Day
Tomorrow will be .
, % of the Moon is Illuminated

Today's Extremes

State Highs State Lows

Community

WunderPhotos

Upload Photos

1,780,675 photos uploaded!

WunderBlogs® & News

Nearby

Air Quality

  Air Quality AQ Index Pollutant
Not available.

Snow Depth

Station Depth Elevation

Earthquake Activity

City Distance Mag. Time & Date
Minimum magnitude displayed is 2.5.

Coastal Water Temperatures

Place Temperature

Nearby Weather Stations